Time;durP1;ratioP1;P1;durP2;ratioP2;P2;SDS_P1;SDS_P2;PMS_P1;PMS_P2;Temp;Humidity;BMP_temperature;BMP_pressure;BME280_temperature;BME280_humidity;BME280_pressure;Samples;Min_cycle;Max_cycle;Signal;HPM_P1;HPM_P2
2023/01/24 00:01:17;;;;;;;3.05;1.60;;;;;;;2.18;91.84;93179.00;5056731;28;20110;-77
2023/01/24 00:03:43;;;;;;;3.20;1.60;;;;;;;2.15;93.43;93185.38;5051927;28;20053;-77
2023/01/24 00:06:08;;;;;;;3.33;1.70;;;;;;;2.08;93.25;93182.09;5034603;28;20103;-76
2023/01/24 00:08:34;;;;;;;2.47;1.50;;;;;;;2.09;93.71;93183.66;5034189;28;20037;-77
2023/01/24 00:11:02;;;;;;;3.95;1.60;;;;;;;2.09;92.54;93186.25;5032101;28;20056;-77
2023/01/24 00:13:28;;;;;;;2.55;1.58;;;;;;;2.08;93.39;93188.03;5001518;28;20059;-77
2023/01/24 00:16:06;;;;;;;4.30;1.73;;;;;;;2.06;93.33;93189.25;5050957;28;20033;-77
2023/01/24 00:18:32;;;;;;;2.90;1.50;;;;;;;2.04;92.88;93192.06;5052125;28;20449;-77
2023/01/24 00:21:03;;;;;;;2.55;1.55;;;;;;;2.01;93.82;93197.66;5033067;28;20029;-77
2023/01/24 00:23:29;;;;;;;2.97;1.60;;;;;;;2.00;93.01;93195.28;5052035;28;20081;-76
2023/01/24 00:25:55;;;;;;;3.05;1.65;;;;;;;1.98;92.83;93197.28;5033866;28;20064;-76
2023/01/24 00:28:20;;;;;;;3.40;1.80;;;;;;;1.94;93.29;93196.94;5052588;28;20680;-78
2023/01/24 00:30:46;;;;;;;2.95;1.60;;;;;;;1.93;92.62;93207.47;5035188;28;20140;-78
2023/01/24 00:33:11;;;;;;;2.92;1.70;;;;;;;1.93;91.28;93210.06;5038988;28;20049;-79
2023/01/24 00:35:37;;;;;;;3.72;1.77;;;;;;;1.96;90.44;93220.78;5041875;28;20117;-78
2023/01/24 00:38:02;;;;;;;4.40;1.88;;;;;;;2.01;89.44;93218.31;5041461;28;20452;-78
2023/01/24 00:40:28;;;;;;;2.65;1.63;;;;;;;2.03;88.66;93220.69;5053752;28;20554;-78
2023/01/24 00:42:55;;;;;;;2.92;1.60;;;;;;;2.02;88.25;93219.09;5033832;28;20071;-78
2023/01/24 00:45:21;;;;;;;3.38;1.85;;;;;;;2.00;87.46;93215.94;5017835;28;20045;-78
2023/01/24 00:47:46;;;;;;;3.10;1.50;;;;;;;1.96;89.11;93225.94;5017656;28;20049;-78
2023/01/24 00:50:12;;;;;;;3.72;1.80;;;;;;;1.93;88.80;93212.66;5051323;28;20100;-78
2023/01/24 00:52:38;;;;;;;3.30;1.80;;;;;;;1.88;88.38;93223.63;5034487;28;20051;-78
2023/01/24 00:55:04;;;;;;;3.42;1.70;;;;;;;1.84;89.19;93237.97;5034339;28;20045;-78
2023/01/24 00:57:29;;;;;;;3.83;1.90;;;;;;;1.80;89.73;93239.38;5034298;28;20407;-76
2023/01/24 00:59:55;;;;;;;5.47;1.75;;;;;;;1.76;89.41;93240.84;5051139;28;20073;-77
2023/01/24 01:02:21;;;;;;;2.72;1.70;;;;;;;1.72;89.57;93237.88;5029042;28;20463;-77
2023/01/24 01:04:46;;;;;;;3.35;1.67;;;;;;;1.70;88.14;93252.00;5031159;28;20041;-77
2023/01/24 01:07:12;;;;;;;3.58;1.67;;;;;;;1.65;88.62;93252.66;5050744;28;20057;-77
2023/01/24 01:09:38;;;;;;;2.60;1.50;;;;;;;1.66;87.95;93256.78;5017787;28;20041;-77
2023/01/24 01:12:03;;;;;;;2.72;1.48;;;;;;;1.64;88.28;93259.59;5032360;28;20041;-76
2023/01/24 01:14:29;;;;;;;3.63;1.80;;;;;;;1.64;87.62;93253.63;5032977;28;20146;-77
2023/01/24 01:16:55;;;;;;;3.08;1.70;;;;;;;1.61;88.51;93257.44;5032100;28;20091;-77
2023/01/24 01:19:21;;;;;;;2.72;1.60;;;;;;;1.56;88.51;93262.44;5019995;28;20128;-77
2023/01/24 01:21:49;;;;;;;3.17;1.90;;;;;;;1.51;89.35;93262.28;5058853;28;20048;-77
2023/01/24 01:24:15;;;;;;;3.10;1.55;;;;;;;1.45;89.68;93268.28;5050379;28;20049;-77
2023/01/24 01:26:40;;;;;;;4.28;2.05;;;;;;;1.40;89.02;93266.34;5050791;28;20127;-77
2023/01/24 01:29:06;;;;;;;3.13;1.80;;;;;;;1.34;89.62;93280.06;5032472;28;20408;-77
2023/01/24 01:31:32;;;;;;;3.38;1.80;;;;;;;1.30;90.06;93284.06;5032097;28;20052;-77
2023/01/24 01:33:57;;;;;;;4.40;1.80;;;;;;;1.29;89.86;93286.88;5050225;28;20098;-77
2023/01/24 01:36:23;;;;;;;4.05;2.00;;;;;;;1.28;89.62;93291.22;5050567;28;20055;-77
2023/01/24 01:38:49;;;;;;;3.08;1.80;;;;;;;1.25;89.90;93283.91;5037393;28;20068;-76
2023/01/24 01:41:14;;;;;;;3.92;1.80;;;;;;;1.26;89.47;93290.63;5031575;28;20037;-77
2023/01/24 01:44:37;;;;;;;4.60;1.95;;;;;;;1.26;89.94;93288.06;5015995;28;20044;-77
2023/01/24 01:46:29;;;;;;;3.85;2.10;;;;;;;1.27;89.64;93284.50;5031991;28;20048;-77
2023/01/24 01:49:02;;;;;;;4.43;2.00;;;;;;;1.23;89.18;93281.53;5049437;28;20039;-77
2023/01/24 01:51:47;;;;;;;4.35;2.10;;;;;;;1.26;89.45;93295.78;5048446;28;20673;-77
2023/01/24 01:54:19;;;;;;;3.17;1.70;;;;;;;1.28;88.61;93290.44;5049883;28;20037;-76
2023/01/24 01:56:50;;;;;;;;;;;;;;;1.31;88.26;93293.41;5048229;28;20384;-76
2023/01/24 01:59:22;;;;;;;8.68;1.88;;;;;;;1.36;87.40;93292.78;5049950;28;19924;-76
2023/01/24 02:01:51;;;;;;;3.13;1.63;;;;;;;1.40;87.10;93293.94;5021060;28;20045;-77
2023/01/24 02:04:25;;;;;;;7.05;2.10;;;;;;;1.37;87.75;93284.81;5062632;28;20075;-77
2023/01/24 02:07:20;;;;;;;4.85;2.13;;;;;;;1.37;88.21;93282.22;5046382;28;20090;-77
2023/01/24 02:09:48;;;;;;;4.70;1.90;;;;;;;1.33;88.94;93269.94;5050095;28;20049;-77
2023/01/24 02:12:22;;;;;;;3.85;1.83;;;;;;;1.32;89.09;93271.75;5049932;28;20402;-76
2023/01/24 02:17:37;;;;;;;3.45;1.63;;;;;;;1.27;91.41;93281.91;5048026;28;20068;-77
2023/01/24 02:20:23;;;;;;;5.13;2.10;;;;;;;1.22;90.92;93276.59;5049792;28;20494;-77
2023/01/24 02:23:07;;;;;;;3.83;1.80;;;;;;;1.21;89.08;93283.53;5061025;28;20036;-77
2023/01/24 02:25:41;;;;;;;5.13;1.98;;;;;;;1.34;85.65;93285.22;5070162;28;20098;-77
2023/01/24 02:28:08;;;;;;;4.85;1.90;;;;;;;1.34;86.45;93287.81;5017008;28;20156;-77
2023/01/24 02:30:35;;;;;;;5.05;2.10;;;;;;;1.30;86.58;93289.22;5049701;28;20117;-77
2023/01/24 02:33:17;;;;;;;4.45;2.10;;;;;;;1.25;86.17;93287.28;5033032;28;20068;-77
2023/01/24 02:35:43;;;;;;;5.50;2.85;;;;;;;1.21;85.66;93290.47;5032679;28;20128;-77
2023/01/24 02:38:22;;;;;;;4.30;2.47;;;;;;;1.30;78.90;93294.38;5049335;28;20110;-77
2023/01/24 02:40:52;;;;;;;9.65;2.60;;;;;;;1.32;78.02;93300.13;5028308;28;20044;-77
2023/01/24 02:43:20;;;;;;;4.85;2.38;;;;;;;1.27;78.01;93299.19;5049471;28;20036;-77
2023/01/24 02:45:45;;;;;;;6.70;2.65;;;;;;;1.26;77.64;93303.53;5032121;28;20521;-77
2023/01/24 02:48:11;;;;;;;7.40;2.67;;;;;;;1.18;77.83;93301.22;5011792;28;20046;-76
2023/01/24 02:53:31;;;;;;;4.88;2.55;;;;;;;1.04;80.36;93306.47;5029316;28;20499;-77
2023/01/24 02:58:49;;;;;;;;;;;;;;;0.89;82.58;93307.72;5049782;28;20033;-76
2023/01/24 03:01:16;;;;;;;4.03;2.00;;;;;;;0.83;83.57;93310.16;5048458;28;20337;-77
2023/01/24 03:03:46;;;;;;;4.88;2.17;;;;;;;0.75;85.21;93307.78;5032086;28;20576;-77
2023/01/24 03:06:14;;;;;;;3.80;2.00;;;;;;;0.70;85.59;93310.22;5019284;28;20404;-76
2023/01/24 03:08:39;;;;;;;4.25;2.03;;;;;;;0.65;85.80;93309.22;5035330;28;20559;-77
2023/01/24 03:11:13;;;;;;;4.68;2.15;;;;;;;0.64;84.64;93310.22;5035065;28;20498;-77
2023/01/24 03:35:53;;;;;;;6.38;1.85;;;;;;;0.64;87.21;93316.16;5034881;28;20049;-77
2023/01/24 03:41:06;;;;;;;6.47;1.80;;;;;;;0.65;88.12;93322.13;5023264;28;20052;-77
2023/01/24 03:43:34;;;;;;;4.18;2.00;;;;;;;0.63;88.00;93330.03;5047456;28;20135;-76
2023/01/24 03:45:59;;;;;;;4.40;2.30;;;;;;;0.65;88.18;93327.25;5038122;28;20056;-77
2023/01/24 03:48:45;;;;;;;4.07;1.90;;;;;;;0.64;88.64;93325.69;5042738;28;20084;-77
2023/01/24 03:53:56;;;;;;;6.80;2.00;;;;;;;0.64;89.84;93330.84;5053841;28;20553;-77
2023/01/24 03:56:27;;;;;;;5.43;2.20;;;;;;;0.66;89.91;93336.59;5033910;28;20084;-77
2023/01/24 03:58:56;;;;;;;5.13;1.90;;;;;;;0.66;90.02;93336.59;5033978;28;20084;-77
2023/01/24 04:01:24;;;;;;;5.35;2.10;;;;;;;0.66;89.76;93344.31;5034203;28;20053;-77
2023/01/24 04:03:57;;;;;;;4.53;2.28;;;;;;;0.68;89.35;93342.34;5047507;28;20494;-77
2023/01/24 04:06:23;;;;;;;5.13;2.20;;;;;;;0.72;86.17;93343.50;5049809;28;20516;-77
2023/01/24 04:08:50;;;;;;;3.78;2.20;;;;;;;0.76;83.36;93344.66;5033167;28;20517;-77
2023/01/24 04:11:18;;;;;;;3.97;2.13;;;;;;;0.80;81.04;93340.69;5017381;28;20116;-77
2023/01/24 04:13:48;;;;;;;7.63;2.45;;;;;;;0.79;80.05;93339.91;5042005;28;20502;-77
2023/01/24 04:16:14;;;;;;;4.85;2.38;;;;;;;0.83;80.20;93342.84;5053841;28;20098;-77
2023/01/24 04:18:58;;;;;;;6.20;2.72;;;;;;;0.77;81.49;93325.66;5056973;28;20051;-77
2023/01/24 04:21:25;;;;;;;4.47;2.50;;;;;;;0.81;81.56;93337.91;5033356;28;20053;-77
2023/01/24 04:23:51;;;;;;;4.47;2.13;;;;;;;0.82;83.42;93336.13;5033608;28;20130;-77
2023/01/24 04:26:16;;;;;;;4.15;2.00;;;;;;;0.84;84.68;93339.28;5033692;28;20407;-77
2023/01/24 04:28:42;;;;;;;3.67;1.70;;;;;;;0.79;85.28;93329.59;5029607;28;20114;-76
2023/01/24 04:31:08;;;;;;;3.25;1.80;;;;;;;0.87;86.64;93330.34;5014060;28;20053;-77
2023/01/24 04:33:54;;;;;;;3.90;1.77;;;;;;;0.88;86.52;93331.91;5031798;28;20061;-77
2023/01/24 04:36:20;;;;;;;6.15;2.20;;;;;;;0.88;87.17;93331.91;5052291;28;20049;-77
2023/01/24 04:38:46;;;;;;;4.15;1.90;;;;;;;0.87;88.20;93332.94;5034346;28;20052;-76
2023/01/24 04:41:20;;;;;;;3.78;1.85;;;;;;;0.84;88.99;93341.88;5034884;28;20475;-77
2023/01/24 04:43:46;;;;;;;4.20;1.90;;;;;;;0.83;88.77;93350.56;5033146;28;20056;-76
2023/01/24 04:46:11;;;;;;;3.83;1.58;;;;;;;0.81;88.42;93347.41;5018791;28;20418;-77
2023/01/24 04:49:03;;;;;;;4.17;2.00;;;;;;;0.80;89.22;93356.94;5050964;28;20040;-77
2023/01/24 04:51:42;;;;;;;3.60;1.88;;;;;;;0.80;89.10;93366.47;5033423;28;20049;-77
2023/01/24 04:54:11;;;;;;;4.18;1.92;;;;;;;0.82;88.25;93361.91;5033359;28;20056;-77
2023/01/24 04:56:37;;;;;;;4.57;2.28;;;;;;;0.85;87.02;93363.28;5041703;28;20124;-77
2023/01/24 04:59:04;;;;;;;4.25;2.10;;;;;;;0.85;86.58;93358.91;5033407;28;20052;-76
2023/01/24 05:01:30;;;;;;;4.53;2.10;;;;;;;0.88;87.40;93362.84;5033116;28;20183;-77
2023/01/24 05:04:19;;;;;;;3.40;2.03;;;;;;;0.88;86.97;93360.28;5041655;28;20052;-76
2023/01/24 05:06:45;;;;;;;4.60;2.22;;;;;;;0.89;87.48;93364.44;5053151;28;20041;-76
2023/01/24 05:09:12;;;;;;;8.15;2.15;;;;;;;0.80;87.65;93358.72;5053002;28;20139;-76
2023/01/24 05:11:56;;;;;;;6.22;2.30;;;;;;;0.81;88.12;93370.59;5053258;28;20043;-76
2023/01/24 05:14:22;;;;;;;3.80;1.90;;;;;;;0.78;87.72;93371.81;5052756;28;20044;-76
2023/01/24 05:16:48;;;;;;;4.35;2.00;;;;;;;0.81;87.39;93374.00;5032927;28;20055;-76
2023/01/24 05:19:14;;;;;;;5.65;2.20;;;;;;;0.81;87.17;93378.34;5034986;28;20040;-76
2023/01/24 05:21:40;;;;;;;4.57;2.00;;;;;;;0.81;87.06;93376.59;5058150;28;20399;-76
2023/01/24 05:24:06;;;;;;;4.10;2.10;;;;;;;0.85;86.83;93382.09;5029221;28;20061;-76
2023/01/24 05:26:32;;;;;;;5.57;2.40;;;;;;;0.87;87.26;93382.69;5034929;28;20041;-77
2023/01/24 05:28:59;;;;;;;4.13;2.30;;;;;;;0.85;86.92;93384.69;5032736;28;20136;-76
2023/01/24 05:31:24;;;;;;;5.03;2.15;;;;;;;0.85;87.24;93389.06;5032674;28;20136;-76
2023/01/24 05:33:50;;;;;;;5.30;2.22;;;;;;;0.85;87.00;93384.69;5029657;28;20079;-76
2023/01/24 05:36:20;;;;;;;4.25;2.20;;;;;;;0.83;86.70;93376.34;5014404;28;20141;-76
2023/01/24 05:38:48;;;;;;;3.53;1.95;;;;;;;0.87;87.03;93382.69;5039614;28;20048;-76
2023/01/24 05:41:16;;;;;;;7.45;2.25;;;;;;;0.88;86.95;93384.28;5010421;28;20485;-77
2023/01/24 05:43:43;;;;;;;4.30;2.17;;;;;;;0.88;86.67;93378.31;5058530;28;20060;-75
2023/01/24 05:46:12;;;;;;;5.00;2.00;;;;;;;0.92;87.06;93387.22;5041402;28;20029;-76
2023/01/24 05:48:46;;;;;;;3.88;2.00;;;;;;;0.97;87.46;93390.78;5049896;28;20599;-76
2023/01/24 05:51:15;;;;;;;4.32;2.08;;;;;;;0.94;86.93;93388.59;5029203;28;20118;-76
2023/01/24 05:53:42;;;;;;;4.85;2.25;;;;;;;0.80;87.17;93379.34;5031492;28;20041;-76
2023/01/24 05:56:19;;;;;;;4.65;2.05;;;;;;;0.90;87.26;93396.94;5047631;28;20052;-77
2023/01/24 05:58:47;;;;;;;4.50;2.15;;;;;;;0.85;87.61;93407.88;5033195;28;20037;-77
2023/01/24 06:01:19;;;;;;;5.00;2.20;;;;;;;0.86;87.05;93412.06;5028842;28;20499;-78
2023/01/24 06:03:48;;;;;;;3.90;2.00;;;;;;;0.82;87.66;93409.09;5028909;28;20067;-77
2023/01/24 06:06:18;;;;;;;4.43;2.00;;;;;;;0.81;86.53;93425.56;5046676;28;20033;-77
2023/01/24 06:08:45;;;;;;;7.93;2.90;;;;;;;0.79;86.71;93413.88;5033469;28;20076;-77
2023/01/24 06:11:19;;;;;;;6.03;3.22;;;;;;;0.75;87.47;93410.09;5035358;28;20115;-78
2023/01/24 06:13:46;;;;;;;4.43;2.20;;;;;;;0.73;86.72;93422.41;5018632;28;20049;-77
2023/01/24 06:16:17;;;;;;;4.53;2.10;;;;;;;0.70;86.88;93418.44;5016349;28;20102;-79
2023/01/24 06:18:43;;;;;;;4.90;2.20;;;;;;;0.70;87.10;93422.78;5033598;28;20096;-79
2023/01/24 06:21:38;;;;;;;4.65;2.13;;;;;;;0.68;87.39;93423.00;5035508;28;20139;-78
2023/01/24 06:24:04;;;;;;;5.50;2.22;;;;;;;0.66;88.07;93421.63;5038598;28;20045;-79
2023/01/24 06:26:49;;;;;;;5.78;1.98;;;;;;;0.62;88.08;93414.28;5032437;28;20084;-77
2023/01/24 06:29:16;;;;;;;5.53;1.98;;;;;;;0.58;87.98;93413.09;5050752;28;20481;-78
2023/01/24 06:32:19;;;;;;;4.18;2.20;;;;;;;0.56;88.05;93417.69;5033442;28;20843;-77
2023/01/24 06:35:10;;;;;;;5.25;2.55;;;;;;;0.54;89.35;93417.09;5013557;28;20491;-77
2023/01/24 06:37:49;;;;;;;5.57;2.28;;;;;;;0.62;88.26;93422.03;4986251;28;20517;-78
2023/01/24 06:40:17;;;;;;;5.90;2.50;;;;;;;0.73;86.42;93430.13;5014051;28;20049;-78
2023/01/24 06:42:43;;;;;;;7.50;3.10;;;;;;;0.81;85.57;93435.88;5054899;28;20033;-78
2023/01/24 06:45:10;;;;;;;7.85;2.72;;;;;;;0.88;84.73;93441.00;5055605;28;20045;-78
2023/01/24 06:47:36;;;;;;;5.05;2.90;;;;;;;0.84;83.79;93439.81;5054551;28;20049;-78
2023/01/24 06:50:04;;;;;;;7.90;3.78;;;;;;;0.77;83.98;93446.78;5054249;28;20153;-78
2023/01/24 06:52:30;;;;;;;10.77;5.05;;;;;;;0.69;85.25;93447.78;5066962;28;20620;-76
2023/01/24 06:54:56;;;;;;;6.88;3.80;;;;;;;0.66;86.00;93447.41;5074821;28;20072;-78
2023/01/24 06:57:21;;;;;;;7.30;3.88;;;;;;;0.63;85.37;93448.56;5075760;28;20064;-78
2023/01/24 06:59:47;;;;;;;6.57;3.60;;;;;;;0.62;85.36;93449.56;5064480;28;20055;-77
2023/01/24 07:02:12;;;;;;;5.22;2.90;;;;;;;0.62;85.15;93447.78;5054704;28;20036;-78
2023/01/24 07:04:38;;;;;;;6.35;2.58;;;;;;;0.62;85.38;93445.22;5037325;28;20699;-78
2023/01/24 07:07:06;;;;;;;4.53;2.58;;;;;;;0.60;86.00;93451.56;5036788;28;20033;-77
2023/01/24 07:09:32;;;;;;;8.63;2.70;;;;;;;0.59;86.27;93447.41;5036624;28;20063;-78
2023/01/24 07:11:58;;;;;;;5.45;2.70;;;;;;;0.60;85.68;93449.78;5053673;28;20535;-78
2023/01/24 07:14:24;;;;;;;4.78;2.60;;;;;;;0.60;86.93;93452.34;5038523;28;20124;-76
2023/01/24 07:16:51;;;;;;;5.40;2.38;;;;;;;0.62;87.72;93458.09;5053405;28;20068;-78
2023/01/24 07:19:21;;;;;;;5.03;2.78;;;;;;;0.85;87.23;93461.22;5054170;28;20029;-78
2023/01/24 07:21:47;;;;;;;7.43;3.00;;;;;;;1.24;86.83;93468.06;5052944;28;20049;-78
2023/01/24 07:24:19;;;;;;;4.75;2.67;;;;;;;2.29;84.97;93467.63;5052005;28;20380;-76
2023/01/24 07:26:45;;;;;;;6.15;2.85;;;;;;;3.48;79.84;93470.81;5072648;28;20118;-77
2023/01/24 07:29:11;;;;;;;5.38;2.40;;;;;;;4.59;75.50;93468.66;5055385;28;20064;-76
2023/01/24 07:31:38;;;;;;;9.75;3.58;;;;;;;5.56;65.40;93462.09;5073366;28;20036;-76
2023/01/24 07:34:04;;;;;;;8.55;2.60;;;;;;;6.39;61.97;93472.91;5071644;28;20052;-76
2023/01/24 07:36:29;;;;;;;4.93;2.25;;;;;;;7.29;62.05;93472.91;5073447;28;20406;-77
2023/01/24 07:38:55;;;;;;;3.70;2.00;;;;;;;8.02;55.31;93467.50;5074092;28;20035;-77
2023/01/24 07:41:21;;;;;;;3.35;1.95;;;;;;;8.37;55.13;93472.22;5064464;28;20510;-77
2023/01/24 07:43:52;;;;;;;4.50;2.15;;;;;;;9.35;52.79;93469.28;5036050;28;20601;-77
2023/01/24 07:46:18;;;;;;;4.15;2.00;;;;;;;9.88;48.76;93468.44;5054186;28;20052;-77
2023/01/24 07:48:44;;;;;;;4.07;2.17;;;;;;;9.99;48.40;93483.09;5054596;28;20033;-77
2023/01/24 07:51:10;;;;;;;4.90;2.22;;;;;;;10.83;46.44;93481.16;5054366;28;20045;-77
2023/01/24 07:53:35;;;;;;;4.28;2.22;;;;;;;11.21;46.06;93481.63;5036957;28;20052;-77
2023/01/24 07:56:02;;;;;;;5.07;2.15;;;;;;;12.01;43.52;93479.03;5054933;28;20109;-78
2023/01/24 07:58:29;;;;;;;5.10;2.40;;;;;;;12.70;42.07;93485.16;5038330;28;20559;-77
2023/01/24 08:00:54;;;;;;;5.65;2.40;;;;;;;13.02;39.55;93481.22;5039009;28;20121;-78
2023/01/24 08:03:20;;;;;;;5.13;2.30;;;;;;;13.09;39.46;93481.69;5038970;28;20106;-78
2023/01/24 08:05:46;;;;;;;4.10;2.10;;;;;;;13.79;38.81;93480.47;5040185;28;20041;-78
2023/01/24 08:08:11;;;;;;;5.30;2.22;;;;;;;14.37;36.58;93480.25;5056359;28;20053;-78
2023/01/24 08:10:37;;;;;;;4.63;2.30;;;;;;;13.83;37.26;93473.59;5057117;28;20063;-78
2023/01/24 08:13:02;;;;;;;3.95;2.22;;;;;;;14.59;36.32;93476.28;5057918;28;20064;-78
2023/01/24 08:15:28;;;;;;;4.25;2.08;;;;;;;15.15;35.77;93483.31;5041573;28;20052;-79
2023/01/24 08:17:54;;;;;;;3.53;1.98;;;;;;;15.29;33.59;93474.63;5055002;28;20061;-79
2023/01/24 08:20:21;;;;;;;3.85;2.20;;;;;;;13.81;35.86;93475.72;5053530;28;20041;-79
2023/01/24 08:22:46;;;;;;;4.85;2.25;;;;;;;12.29;38.45;93482.00;5059515;28;20029;-79
2023/01/24 08:25:12;;;;;;;6.65;2.33;;;;;;;11.27;40.52;93492.88;5056455;28;20738;-78
2023/01/24 08:27:41;;;;;;;4.03;2.10;;;;;;;10.32;43.01;93484.53;5065442;28;20130;-78
2023/01/24 08:30:10;;;;;;;4.90;2.30;;;;;;;10.12;44.44;93489.69;5077244;28;20040;-78
2023/01/24 08:32:37;;;;;;;3.97;2.00;;;;;;;10.44;44.84;93499.19;5077125;28;20084;-78
2023/01/24 08:35:03;;;;;;;6.60;2.10;;;;;;;11.41;42.23;93501.75;5058756;28;20061;-78
2023/01/24 08:37:28;;;;;;;3.92;2.20;;;;;;;10.92;42.01;93510.22;5059629;28;20112;-78
2023/01/24 08:39:56;;;;;;;5.65;2.70;;;;;;;10.85;41.69;93505.22;5042587;28;20079;-78
2023/01/24 08:42:23;;;;;;;5.88;2.90;;;;;;;9.82;43.50;93512.09;5057424;28;20036;-77
2023/01/24 08:44:48;;;;;;;5.25;2.92;;;;;;;9.59;45.13;93515.91;5056819;28;20044;-77
2023/01/24 08:47:14;;;;;;;8.38;3.60;;;;;;;9.35;45.36;93524.16;5037649;28;20049;-77
2023/01/24 08:49:40;;;;;;;6.78;3.33;;;;;;;9.78;44.97;93522.28;5025609;28;20049;-77
2023/01/24 08:52:06;;;;;;;10.30;3.40;;;;;;;10.09;43.95;93524.22;5054882;28;20040;-78
2023/01/24 08:54:32;;;;;;;6.07;2.88;;;;;;;9.91;43.60;93528.88;5055050;28;20190;-77
2023/01/24 08:56:58;;;;;;;5.85;3.10;;;;;;;10.14;43.42;93526.84;5054093;28;20047;-77
2023/01/24 08:59:24;;;;;;;6.45;2.85;;;;;;;12.07;41.49;93529.66;5063471;28;20051;-77
2023/01/24 09:01:50;;;;;;;8.10;3.42;;;;;;;12.85;37.58;93528.13;5073117;28;20052;-78
2023/01/24 09:04:15;;;;;;;6.32;3.25;;;;;;;11.52;40.33;93534.78;5059184;28;20479;-78
2023/01/24 09:06:41;;;;;;;6.10;3.30;;;;;;;11.50;40.38;93541.34;5051900;28;20053;-78
2023/01/24 09:09:07;;;;;;;12.07;3.30;;;;;;;12.40;39.62;93532.63;5042800;28;20092;-77
2023/01/24 09:11:33;;;;;;;6.43;3.03;;;;;;;12.49;39.34;93531.78;5072093;28;20441;-76
2023/01/24 09:13:58;;;;;;;7.63;3.13;;;;;;;12.84;37.89;93534.47;5042754;28;20049;-76
2023/01/24 09:16:27;;;;;;;20.98;3.83;;;;;;;11.41;39.60;93538.47;5048452;28;20407;-78
2023/01/24 09:18:53;;;;;;;17.77;4.93;;;;;;;10.10;42.76;93539.66;5047656;28;20439;-76
2023/01/24 09:21:19;;;;;;;9.57;3.67;;;;;;;9.46;44.38;93542.53;5055305;28;20045;-76
2023/01/24 09:23:46;;;;;;;6.47;3.53;;;;;;;8.49;47.77;93545.97;5050467;28;20052;-77
2023/01/24 09:26:11;;;;;;;6.22;2.60;;;;;;;8.19;47.83;93545.63;5053237;28;20538;-76
2023/01/24 09:28:37;;;;;;;138.93;11.52;;;;;;;8.04;48.82;93541.81;5050264;28;20114;-76
2023/01/24 09:31:03;;;;;;;23.45;3.83;;;;;;;8.18;49.17;93544.06;5062158;28;20043;-76
2023/01/24 09:33:29;;;;;;;7.80;3.08;;;;;;;8.09;49.45;93544.47;5074032;28;20036;-78
2023/01/24 09:36:00;;;;;;;5.43;2.88;;;;;;;7.89;50.56;93547.66;5074623;28;20544;-79
2023/01/24 09:38:28;;;;;;;5.28;2.83;;;;;;;7.89;49.82;93547.66;5060505;28;20075;-79
2023/01/24 09:41:01;;;;;;;22.95;3.88;;;;;;;8.05;49.20;93551.22;5024714;28;20044;-78
2023/01/24 09:43:39;;;;;;;6.82;3.03;;;;;;;7.83;50.26;93555.66;5051659;28;20133;-79
2023/01/24 09:46:17;;;;;;;7.38;2.55;;;;;;;7.55;50.64;93557.41;5051008;28;20491;-78
2023/01/24 09:48:44;;;;;;;6.25;2.63;;;;;;;7.86;49.32;93549.97;5050308;28;20041;-76
2023/01/24 09:51:17;;;;;;;7.82;2.45;;;;;;;8.44;49.41;93553.72;5054028;28;20161;-78
2023/01/24 09:53:46;;;;;;;7.78;2.60;;;;;;;9.02;48.18;93553.97;5062845;28;20111;-76
2023/01/24 09:56:39;;;;;;;5.70;2.85;;;;;;;8.87;47.02;93554.66;5070274;28;20044;-76
2023/01/24 09:59:16;;;;;;;9.43;2.60;;;;;;;8.70;48.93;93551.38;5062329;28;20045;-76
2023/01/24 10:01:42;;;;;;;6.25;2.75;;;;;;;8.76;48.71;93547.78;5052336;28;20541;-78
2023/01/24 10:04:29;;;;;;;5.82;2.70;;;;;;;9.18;47.07;93545.19;5051637;28;20065;-79
2023/01/24 10:07:13;;;;;;;6.88;2.72;;;;;;;9.51;45.83;93551.16;5033813;28;20123;-77
2023/01/24 10:09:58;;;;;;;7.88;2.40;;;;;;;10.36;44.78;93550.25;5033641;28;20074;-77
2023/01/24 10:12:42;;;;;;;6.82;3.20;;;;;;;9.45;46.58;93556.59;5060968;28;20041;-77
2023/01/24 10:15:19;;;;;;;9.00;4.10;;;;;;;8.72;49.06;93557.13;5061807;28;20069;-77
2023/01/24 10:18:00;;;;;;;10.82;4.38;;;;;;;8.59;49.44;93554.91;5059608;28;20040;-77
2023/01/24 10:20:47;;;;;;;15.23;4.60;;;;;;;8.63;50.11;93553.41;5029866;28;20060;-77
2023/01/24 10:23:17;;;;;;;7.03;3.20;;;;;;;9.40;46.91;93548.75;5071649;28;20170;-77
2023/01/24 10:26:11;;;;;;;5.43;2.85;;;;;;;9.79;47.06;93539.56;5074904;28;20127;-77
2023/01/24 10:28:43;;;;;;;8.35;3.08;;;;;;;10.12;45.08;93542.78;5075213;28;20040;-77
2023/01/24 10:31:16;;;;;;;7.78;3.90;;;;;;;10.41;44.83;93537.94;5053447;28;20044;-77
2023/01/24 10:33:48;;;;;;;6.63;3.20;;;;;;;9.67;46.54;93541.56;5054366;28;20045;-77
2023/01/24 10:36:26;;;;;;;13.90;5.35;;;;;;;9.90;45.80;93544.81;5055636;28;20040;-77
2023/01/24 10:38:52;;;;;;;7.72;4.30;;;;;;;10.04;45.42;93538.03;5054249;28;20037;-77
2023/01/24 10:41:25;;;;;;;11.25;4.05;;;;;;;10.24;44.91;93539.16;5054505;28;20130;-77
2023/01/24 10:44:01;;;;;;;7.97;2.75;;;;;;;9.96;45.05;93531.50;5068688;28;20056;-77
2023/01/24 10:46:35;;;;;;;4.10;2.10;;;;;;;9.60;46.04;93527.94;5057384;28;20082;-76
2023/01/24 10:49:04;;;;;;;7.40;3.45;;;;;;;9.22;46.24;93532.44;5071680;28;20107;-77
2023/01/24 10:51:30;;;;;;;12.70;3.10;;;;;;;9.71;45.27;93528.78;5046087;28;20037;-77
2023/01/24 10:54:01;;;;;;;8.02;3.45;;;;;;;9.35;46.02;93520.75;5068130;28;20040;-77
2023/01/24 10:56:27;;;;;;;5.72;2.65;;;;;;;9.49;45.89;93536.78;5075089;28;20100;-77
2023/01/24 10:58:57;;;;;;;4.78;2.58;;;;;;;8.83;47.86;93535.28;5073000;28;20052;-77
2023/01/24 11:01:32;;;;;;;5.82;2.60;;;;;;;8.59;47.48;93536.66;5040173;28;20049;-76
2023/01/24 11:03:59;;;;;;;6.75;2.35;;;;;;;8.84;48.59;93536.84;5041484;28;20049;-77
2023/01/24 11:06:24;;;;;;;7.53;2.95;;;;;;;9.45;46.00;93535.69;5038762;28;20041;-77
2023/01/24 11:09:00;;;;;;;5.95;2.72;;;;;;;9.24;46.39;93538.19;5032753;28;20045;-77
2023/01/24 11:11:31;;;;;;;7.15;2.90;;;;;;;9.00;47.38;93532.53;5034013;28;20128;-76
2023/01/24 11:14:00;;;;;;;4.88;2.17;;;;;;;9.09;46.61;93527.63;5054050;28;20075;-77
2023/01/24 11:16:39;;;;;;;8.13;2.95;;;;;;;9.68;45.55;93535.31;5073243;28;20136;-76
2023/01/24 11:19:05;;;;;;;10.95;2.58;;;;;;;10.65;44.63;93523.56;5053073;28;20029;-77
2023/01/24 11:21:32;;;;;;;4.78;2.10;;;;;;;10.61;43.46;93521.47;5054121;28;20055;-76
2023/01/24 11:24:06;;;;;;;5.63;2.63;;;;;;;10.18;44.31;93528.69;5050364;28;20143;-77
2023/01/24 11:26:38;;;;;;;3.05;1.60;;;;;;;9.57;45.80;93523.22;5042441;28;20041;-77
2023/01/24 11:29:16;;;;;;;7.73;2.93;;;;;;;9.90;45.56;93522.03;5033502;28;20709;-77
2023/01/24 11:31:45;;;;;;;7.15;2.83;;;;;;;9.69;45.44;93513.34;5052861;28;20775;-77
2023/01/24 11:34:29;;;;;;;8.88;2.75;;;;;;;10.06;45.81;93515.03;5050904;28;20044;-77
2023/01/24 11:37:17;;;;;;;3.40;1.85;;;;;;;10.43;44.26;93508.88;5052421;28;20102;-77
2023/01/24 11:40:07;;;;;;;6.45;2.50;;;;;;;10.39;45.11;93507.84;5041035;28;20045;-77
2023/01/24 11:43:16;;;;;;;5.40;2.67;;;;;;;10.86;43.65;93504.19;5035696;28;20116;-77
2023/01/24 11:45:45;;;;;;;5.30;2.58;;;;;;;10.09;45.80;93498.06;4982991;28;20042;-77
2023/01/24 11:48:29;;;;;;;5.03;2.67;;;;;;;10.07;46.12;93498.31;4992214;28;20046;-77
2023/01/24 11:51:02;;;;;;;4.28;2.40;;;;;;;10.10;45.18;93494.41;5031101;28;20106;-77
2023/01/24 11:53:42;;;;;;;6.22;3.03;;;;;;;9.64;46.05;93489.81;5053567;28;20052;-77
2023/01/24 11:56:51;;;;;;;5.45;2.55;;;;;;;9.52;45.84;93494.44;5037438;28;20461;-77
2023/01/24 11:59:42;;;;;;;4.15;2.40;;;;;;;9.92;45.44;93488.56;5035402;28;20128;-77
2023/01/24 12:02:53;;;;;;;5.93;2.60;;;;;;;9.47;46.45;93494.41;5042246;28;20037;-77
2023/01/24 12:05:45;;;;;;;6.57;2.83;;;;;;;9.31;47.42;93481.28;4985101;28;20107;-77
2023/01/24 12:08:39;;;;;;;4.72;2.65;;;;;;;9.48;46.82;93472.47;5048105;28;20110;-77
2023/01/24 12:11:40;;;;;;;7.53;2.45;;;;;;;9.81;47.21;93481.75;5035316;28;20057;-77
2023/01/24 12:14:05;;;;;;;5.32;2.78;;;;;;;9.97;46.61;93469.50;5053098;28;20567;-77
2023/01/24 12:16:42;;;;;;;9.73;3.88;;;;;;;9.88;47.32;93471.81;5049956;28;20108;-77
2023/01/24 12:19:44;;;;;;;8.30;3.22;;;;;;;9.61;46.84;93471.22;5049983;28;20049;-77
2023/01/24 12:22:16;;;;;;;7.25;3.10;;;;;;;9.70;47.43;93462.63;5053081;28;20048;-77
2023/01/24 12:24:46;;;;;;;6.47;2.72;;;;;;;10.35;45.77;93464.91;5049859;28;20449;-77
2023/01/24 12:27:21;;;;;;;5.28;2.40;;;;;;;10.43;43.44;93455.75;5033247;28;20510;-77
2023/01/24 12:30:02;;;;;;;3.40;1.95;;;;;;;10.70;43.48;93461.50;5048018;28;20180;-76
2023/01/24 12:32:40;;;;;;;9.05;3.60;;;;;;;10.09;45.72;93456.97;5051707;28;20040;-76
2023/01/24 12:35:38;;;;;;;9.05;4.40;;;;;;;9.95;47.44;93458.50;5051522;28;20037;-77